Time;durP1;ratioP1;P1;durP2;ratioP2;P2;SDS_P1;SDS_P2;PMS_P1;PMS_P2;Temp;Humidity;BMP_temperature;BMP_pressure;BME280_temperature;BME280_humidity;BME280_pressure;Samples;Min_cycle;Max_cycle;Signal;HPM_P1;HPM_P2
2021/10/02 00:35:22;;;;;;;4.13;2.00;;;14.50;93.50;;;;;;4989492;28;20087;-76
2021/10/02 00:46:02;;;;;;;5.22;1.50;;;14.50;93.60;;;;;;4988705;28;20045;-75
2021/10/02 00:48:29;;;;;;;4.82;1.85;;;14.50;93.60;;;;;;4991529;28;20378;-76
2021/10/02 00:50:58;;;;;;;3.03;1.70;;;14.40;93.60;;;;;;4973970;28;20663;-75
2021/10/02 00:53:25;;;;;;;6.15;2.00;;;14.40;93.60;;;;;;4992983;28;20026;-75
2021/10/02 00:55:51;;;;;;;5.68;2.00;;;14.40;93.60;;;;;;4993056;28;20101;-75
2021/10/02 00:58:17;;;;;;;4.35;1.88;;;14.40;93.70;;;;;;4991826;28;20038;-75
2021/10/02 01:00:46;;;;;;;4.75;2.13;;;14.40;94.00;;;;;;4991880;28;20039;-75
2021/10/02 01:03:38;;;;;;;2.75;1.77;;;14.40;93.70;;;;;;4992806;28;20033;-75
2021/10/02 01:06:58;;;;;;;4.50;1.92;;;14.40;94.00;;;;;;4988864;28;20022;-75
2021/10/02 01:09:35;;;;;;;2.30;1.67;;;14.40;93.80;;;;;;5017084;28;20053;-75
2021/10/02 01:12:03;;;;;;;7.80;2.08;;;14.30;93.70;;;;;;4991107;28;20430;-75
2021/10/02 01:14:48;;;;;;;4.55;1.67;;;14.30;93.80;;;;;;4991833;28;20379;-75
2021/10/02 01:17:37;;;;;;;3.13;1.60;;;14.30;93.80;;;;;;4992591;28;20035;-76
2021/10/02 01:20:10;;;;;;;2.65;1.70;;;14.30;93.80;;;;;;5014440;28;20573;-75
2021/10/02 01:23:08;;;;;;;3.53;1.73;;;14.30;93.80;;;;;;4991795;28;20064;-75
2021/10/02 01:26:05;;;;;;;3.83;1.75;;;14.30;93.80;;;;;;4991809;28;20100;-75
2021/10/02 01:28:35;;;;;;;3.80;1.60;;;14.30;93.80;;;;;;4988232;28;20748;-75
2021/10/02 01:31:24;;;;;;;2.08;1.30;;;14.30;93.80;;;;;;4993030;28;20117;-75
2021/10/02 01:47:42;;;;;;;5.93;1.45;;;14.30;93.80;;;;;;4990056;28;20033;-75
2021/10/02 01:50:09;;;;;;;2.50;1.35;;;14.40;93.80;;;;;;4991787;28;20030;-75
2021/10/02 01:52:41;;;;;;;7.38;1.70;;;14.40;93.80;;;;;;4989542;28;20064;-75
2021/10/02 01:55:09;;;;;;;3.35;1.83;;;14.40;93.80;;;;;;4989205;28;20113;-75
2021/10/02 01:57:44;;;;;;;3.40;1.63;;;14.30;93.70;;;;;;4991102;28;20038;-75
2021/10/02 02:00:11;;;;;;;2.55;1.65;;;14.30;93.80;;;;;;4990980;28;20131;-75
2021/10/02 02:02:40;;;;;;;2.33;1.55;;;14.30;93.80;;;;;;4989488;28;20061;-75
2021/10/02 02:05:10;;;;;;;2.03;1.35;;;14.30;93.80;;;;;;4991828;28;20030;-75
2021/10/02 02:07:37;;;;;;;3.55;1.52;;;14.30;93.80;;;;;;4990784;28;20035;-76
2021/10/02 02:10:05;;;;;;;1.67;1.58;;;14.30;93.70;;;;;;4990805;28;20375;-75
2021/10/02 02:12:33;;;;;;;3.55;1.67;;;14.20;93.70;;;;;;4991854;28;20030;-75
2021/10/02 02:15:18;;;;;;;3.85;1.70;;;14.20;93.70;;;;;;4990236;28;20064;-75
2021/10/02 02:17:50;;;;;;;2.88;1.42;;;14.20;94.00;;;;;;4973177;28;20038;-75
2021/10/02 02:20:21;;;;;;;2.50;1.40;;;14.20;93.70;;;;;;4988557;28;20386;-75
2021/10/02 02:22:48;;;;;;;1.63;1.13;;;14.20;94.00;;;;;;4986483;28;20053;-75
2021/10/02 02:25:14;;;;;;;5.15;1.38;;;14.20;93.80;;;;;;4985354;28;20066;-75
2021/10/02 02:27:40;;;;;;;3.17;1.65;;;14.20;93.80;;;;;;4987572;28;20054;-75
2021/10/02 02:30:06;;;;;;;2.33;1.30;;;14.20;93.80;;;;;;4991239;28;20038;-75
2021/10/02 02:32:33;;;;;;;2.75;1.30;;;14.20;93.80;;;;;;4985646;28;20478;-75
2021/10/02 02:34:59;;;;;;;3.00;1.17;;;14.20;93.70;;;;;;4991888;28;20030;-75
2021/10/02 02:37:25;;;;;;;3.13;1.40;;;14.20;94.00;;;;;;4983381;28;20037;-75
2021/10/02 02:39:51;;;;;;;4.28;1.52;;;14.20;93.70;;;;;;4991826;28;20038;-75
2021/10/02 02:42:17;;;;;;;2.05;1.30;;;14.20;93.70;;;;;;4991609;28;20593;-75
2021/10/02 02:44:43;;;;;;;2.55;1.30;;;14.20;93.70;;;;;;4983027;28;20027;-75
2021/10/02 02:47:14;;;;;;;1.90;1.70;;;14.10;93.70;;;;;;4991289;28;20033;-75
2021/10/02 02:50:11;;;;;;;1.83;1.60;;;14.20;93.80;;;;;;4984513;28;20119;-75
2021/10/02 02:52:51;;;;;;;5.68;1.75;;;14.20;93.90;;;;;;4988410;28;20030;-75
2021/10/02 02:55:20;;;;;;;2.63;2.00;;;14.20;93.90;;;;;;4978057;28;20458;-75
2021/10/02 02:57:56;;;;;;;3.90;1.60;;;14.20;93.90;;;;;;4984376;28;20426;-75
2021/10/02 03:00:24;;;;;;;4.70;1.80;;;14.20;93.90;;;;;;4990716;28;20047;-75
2021/10/02 03:02:57;;;;;;;5.57;1.88;;;14.20;93.90;;;;;;4973893;28;20045;-75
2021/10/02 03:05:24;;;;;;;1.95;1.63;;;14.20;93.90;;;;;;4991313;28;20030;-75
2021/10/02 03:07:54;;;;;;;2.53;1.25;;;14.20;94.10;;;;;;4987086;28;20539;-75
2021/10/02 03:10:20;;;;;;;4.60;1.67;;;14.20;93.80;;;;;;4991324;28;20109;-75
2021/10/02 03:12:48;;;;;;;3.17;1.65;;;14.10;93.80;;;;;;4988289;28;20046;-75
2021/10/02 03:15:16;;;;;;;3.33;1.63;;;14.10;93.80;;;;;;4970691;28;20833;-75
2021/10/02 03:17:45;;;;;;;1.98;1.55;;;14.00;93.70;;;;;;4982286;28;20026;-75
2021/10/02 03:20:13;;;;;;;2.50;1.90;;;14.00;93.70;;;;;;4988967;28;20034;-75
2021/10/02 03:22:41;;;;;;;2.77;1.87;;;14.00;93.70;;;;;;4988014;28;20034;-75
2021/10/02 03:25:07;;;;;;;2.10;1.70;;;13.90;93.70;;;;;;4988180;28;20031;-75
2021/10/02 03:27:34;;;;;;;5.55;1.98;;;13.90;93.70;;;;;;4986885;28;20038;-75
2021/10/02 03:30:00;;;;;;;1.52;1.42;;;13.90;93.80;;;;;;4982534;28;20030;-75
2021/10/02 03:32:26;;;;;;;2.90;1.70;;;13.90;93.80;;;;;;4982839;28;20038;-75
2021/10/02 03:34:53;;;;;;;2.22;1.63;;;13.90;93.80;;;;;;4986294;28;20046;-75
2021/10/02 03:37:20;;;;;;;3.53;2.00;;;13.90;93.90;;;;;;4981449;28;20034;-75
2021/10/02 03:39:45;;;;;;;5.63;1.58;;;13.90;93.90;;;;;;4971673;28;20069;-75
2021/10/02 03:42:22;;;;;;;1.75;1.52;;;13.90;93.90;;;;;;4979185;28;20054;-75
2021/10/02 03:44:51;;;;;;;6.88;2.10;;;14.00;94.00;;;;;;4990721;28;20029;-76
2021/10/02 03:47:19;;;;;;;4.13;1.85;;;14.00;93.90;;;;;;4980125;28;20052;-75
2021/10/02 03:49:46;;;;;;;4.00;2.30;;;14.00;93.90;;;;;;4990215;28;20031;-75
2021/10/02 03:52:13;;;;;;;3.40;1.88;;;14.00;94.00;;;;;;4989633;28;20035;-75
2021/10/02 03:54:39;;;;;;;4.82;2.20;;;14.00;94.30;;;;;;4989761;28;20121;-75
2021/10/02 03:57:05;;;;;;;4.68;2.28;;;14.00;94.00;;;;;;4984186;28;20105;-75
2021/10/02 03:59:31;;;;;;;3.80;2.28;;;14.00;94.00;;;;;;4989572;28;20153;-75
2021/10/02 04:01:56;;;;;;;4.07;2.28;;;14.00;94.00;;;;;;4983570;28;20101;-75
2021/10/02 04:04:22;;;;;;;4.20;2.60;;;14.00;94.00;;;;;;4990185;28;20044;-75
2021/10/02 04:06:51;;;;;;;7.60;2.75;;;14.00;94.00;;;;;;4983397;28;20058;-75
2021/10/02 04:09:18;;;;;;;;;;;14.00;94.00;;;;;;4977516;28;20034;-75
2021/10/02 04:11:44;;;;;;;3.08;2.38;;;14.10;94.00;;;;;;4984657;28;19910;-75
2021/10/02 04:14:10;;;;;;;4.50;2.25;;;14.00;94.00;;;;;;4990089;28;20025;-76
2021/10/02 04:16:36;;;;;;;6.60;2.47;;;14.00;94.00;;;;;;4984266;28;20027;-75
2021/10/02 04:19:03;;;;;;;4.28;2.50;;;14.00;94.00;;;;;;4989303;28;20026;-75
2021/10/02 04:21:28;;;;;;;4.18;2.90;;;14.00;94.00;;;;;;4988905;28;20034;-75
2021/10/02 04:23:54;;;;;;;4.80;2.47;;;14.00;94.00;;;;;;4988411;28;20023;-75
2021/10/02 04:26:21;;;;;;;8.50;3.05;;;14.00;94.00;;;;;;4988684;28;20038;-75
2021/10/02 04:28:48;;;;;;;6.18;2.47;;;13.90;94.20;;;;;;4990168;28;20031;-75
2021/10/02 04:31:16;;;;;;;5.80;2.55;;;14.00;94.00;;;;;;4983505;28;20069;-75
2021/10/02 04:33:42;;;;;;;3.80;2.58;;;13.90;94.00;;;;;;4988354;28;20103;-75
2021/10/02 04:36:08;;;;;;;4.45;2.70;;;13.90;94.00;;;;;;4989919;28;20038;-75
2021/10/02 04:38:34;;;;;;;3.70;2.90;;;13.90;94.00;;;;;;4972439;28;20394;-75
2021/10/02 04:40:59;;;;;;;4.45;2.85;;;13.80;94.00;;;;;;4991111;28;20034;-75
2021/10/02 04:43:25;;;;;;;3.80;3.30;;;13.80;94.00;;;;;;4976029;28;20058;-75
2021/10/02 04:45:51;;;;;;;5.82;3.05;;;13.80;94.00;;;;;;4983826;28;20099;-75
2021/10/02 04:48:17;;;;;;;4.30;2.88;;;13.70;94.00;;;;;;4972377;28;20487;-75
2021/10/02 04:50:42;;;;;;;4.28;3.13;;;13.70;94.00;;;;;;4993345;28;20031;-75
2021/10/02 04:53:08;;;;;;;5.10;3.10;;;13.70;94.00;;;;;;4989709;28;20038;-75
2021/10/02 04:55:34;;;;;;;5.45;2.88;;;13.70;94.00;;;;;;4988666;28;20088;-76
2021/10/02 04:57:59;;;;;;;6.95;3.70;;;13.70;94.10;;;;;;4988096;28;20039;-75
2021/10/02 05:00:25;;;;;;;4.43;3.00;;;13.70;94.10;;;;;;4988149;28;20049;-75
2021/10/02 05:02:51;;;;;;;6.13;3.60;;;13.70;94.10;;;;;;4973671;28;20109;-75
2021/10/02 05:05:17;;;;;;;6.97;3.35;;;13.70;94.10;;;;;;4979757;28;20035;-75
2021/10/02 05:07:42;;;;;;;4.30;3.15;;;13.70;94.10;;;;;;4967839;28;20072;-75
2021/10/02 05:10:09;;;;;;;6.75;3.88;;;13.70;94.10;;;;;;4988926;28;20037;-75
2021/10/02 05:12:35;;;;;;;7.55;3.88;;;13.70;94.00;;;;;;4986651;28;20054;-75
2021/10/02 05:15:01;;;;;;;3.88;2.53;;;13.70;94.00;;;;;;4985581;28;20479;-75
2021/10/02 05:17:26;;;;;;;6.70;3.28;;;13.70;94.00;;;;;;4988738;28;20026;-75
2021/10/02 05:19:53;;;;;;;5.75;3.63;;;13.70;94.00;;;;;;4989507;28;20513;-75
2021/10/02 05:22:18;;;;;;;3.97;2.95;;;13.70;94.10;;;;;;4982155;28;20038;-75
2021/10/02 05:24:44;;;;;;;6.20;3.20;;;13.70;94.10;;;;;;4988777;28;20030;-75
2021/10/02 05:27:11;;;;;;;5.30;3.42;;;13.70;94.10;;;;;;4979645;28;20065;-75
2021/10/02 05:29:39;;;;;;;5.53;3.35;;;13.80;94.10;;;;;;4989572;28;20046;-75
2021/10/02 05:32:06;;;;;;;8.07;3.53;;;13.70;94.00;;;;;;4992952;28;20038;-75
2021/10/02 05:34:32;;;;;;;4.57;3.22;;;13.80;94.10;;;;;;5004962;28;20046;-75
2021/10/02 05:36:58;;;;;;;9.20;3.80;;;13.80;94.10;;;;;;4974790;28;20038;-75
2021/10/02 05:39:24;;;;;;;9.13;3.65;;;13.80;94.10;;;;;;4992538;28;20026;-75
2021/10/02 05:41:51;;;;;;;4.50;3.88;;;13.80;94.10;;;;;;4989311;28;20084;-75
2021/10/02 05:44:16;;;;;;;5.28;4.10;;;13.80;94.10;;;;;;4992595;28;20029;-76
2021/10/02 05:46:42;;;;;;;3.45;2.80;;;13.90;94.10;;;;;;4988525;28;20030;-75
2021/10/02 05:49:08;;;;;;;8.18;3.80;;;13.90;94.10;;;;;;4991562;28;20068;-75
2021/10/02 05:51:33;;;;;;;9.77;3.95;;;13.90;94.10;;;;;;4989917;28;20050;-75
2021/10/02 05:53:59;;;;;;;9.32;3.53;;;13.90;94.20;;;;;;4990693;28;20392;-75
2021/10/02 05:56:25;;;;;;;8.85;4.25;;;13.90;94.20;;;;;;4991946;28;20041;-75
2021/10/02 05:58:53;;;;;;;6.10;3.83;;;13.90;94.20;;;;;;4982978;28;20039;-75
2021/10/02 06:01:20;;;;;;;6.93;3.20;;;13.90;94.20;;;;;;4998638;28;20197;-75
2021/10/02 06:03:46;;;;;;;7.22;3.50;;;13.90;94.20;;;;;;5001810;28;20087;-75
2021/10/02 06:06:12;;;;;;;7.20;3.35;;;14.00;94.20;;;;;;4993779;28;20030;-75
2021/10/02 06:08:38;;;;;;;4.93;2.72;;;14.00;94.20;;;;;;4986085;28;20027;-75
2021/10/02 06:11:04;;;;;;;3.63;2.90;;;14.00;94.20;;;;;;5001410;28;20041;-75
2021/10/02 06:13:32;;;;;;;4.90;2.85;;;14.00;94.20;;;;;;4990124;28;20030;-75
2021/10/02 06:15:59;;;;;;;8.70;3.10;;;14.10;94.20;;;;;;4983346;28;20105;-76
2021/10/02 06:18:25;;;;;;;7.10;4.10;;;14.10;94.20;;;;;;4977504;28;20027;-75
2021/10/02 06:20:51;;;;;;;7.65;3.40;;;14.10;94.20;;;;;;4985064;28;20441;-75
2021/10/02 06:23:16;;;;;;;8.75;2.78;;;14.10;94.20;;;;;;4977800;28;20030;-76
2021/10/02 06:25:42;;;;;;;6.78;3.30;;;14.10;94.20;;;;;;4991332;28;20026;-75
2021/10/02 06:28:08;;;;;;;3.83;2.72;;;14.10;94.20;;;;;;4991707;28;20026;-76
2021/10/02 06:30:33;;;;;;;4.30;3.03;;;14.20;94.20;;;;;;4972262;28;20038;-75
2021/10/02 06:32:59;;;;;;;7.00;2.85;;;14.20;94.10;;;;;;4987447;28;20060;-76
2021/10/02 06:35:24;;;;;;;7.72;3.30;;;14.20;94.10;;;;;;4970554;28;20046;-75
2021/10/02 06:37:50;;;;;;;7.22;3.05;;;14.30;94.10;;;;;;5012584;28;20062;-75
2021/10/02 06:40:16;;;;;;;5.28;2.90;;;14.40;94.40;;;;;;5002480;28;20031;-75
2021/10/02 06:42:42;;;;;;;3.63;2.25;;;14.40;94.10;;;;;;5047068;28;20034;-75
2021/10/02 06:45:08;;;;;;;4.93;2.53;;;14.40;94.00;;;;;;5031400;28;20391;-75
2021/10/02 06:47:34;;;;;;;5.47;3.15;;;14.40;94.00;;;;;;4971394;28;20034;-75
2021/10/02 06:50:00;;;;;;;3.33;2.42;;;14.50;93.90;;;;;;5043156;28;20038;-75
2021/10/02 06:52:30;;;;;;;4.13;2.47;;;14.40;93.80;;;;;;5038187;28;20026;-76
2021/10/02 06:54:57;;;;;;;7.00;2.80;;;14.40;93.80;;;;;;4999830;28;20038;-75
2021/10/02 06:57:23;;;;;;;5.45;2.72;;;14.40;93.80;;;;;;4994530;28;20121;-75
2021/10/02 06:59:49;;;;;;;5.35;2.70;;;14.40;93.80;;;;;;5011871;28;20064;-75
2021/10/02 07:02:15;;;;;;;3.97;2.20;;;14.50;93.80;;;;;;4999990;28;20026;-75
2021/10/02 07:04:42;;;;;;;4.97;2.40;;;14.50;94.10;;;;;;5022187;28;20106;-75
2021/10/02 07:07:08;;;;;;;4.07;2.22;;;14.50;93.80;;;;;;4997036;28;20022;-75
2021/10/02 07:09:34;;;;;;;6.38;2.20;;;14.60;93.70;;;;;;5012396;28;20052;-75
2021/10/02 07:12:00;;;;;;;3.97;2.30;;;14.70;93.70;;;;;;5009033;28;20035;-75
2021/10/02 07:14:26;;;;;;;6.15;2.33;;;14.80;93.60;;;;;;5006741;28;21554;-76
2021/10/02 07:16:52;;;;;;;2.88;2.10;;;14.90;93.50;;;;;;5013806;28;20034;-76
2021/10/02 07:19:17;;;;;;;5.03;1.98;;;14.90;93.30;;;;;;4989442;28;20439;-76
2021/10/02 07:21:43;;;;;;;3.72;2.20;;;15.00;93.20;;;;;;4973864;28;20121;-76
2021/10/02 07:24:13;;;;;;;5.45;2.15;;;15.00;93.20;;;;;;4989215;28;20079;-76
2021/10/02 07:26:40;;;;;;;3.80;2.15;;;15.00;93.20;;;;;;5010019;28;20033;-76
2021/10/02 07:29:06;;;;;;;6.35;1.73;;;15.00;93.10;;;;;;5095029;28;20107;-78
2021/10/02 07:31:32;;;;;;;6.90;2.40;;;15.00;93.10;;;;;;5004972;28;20095;-78
2021/10/02 07:33:57;;;;;;;5.00;2.42;;;15.00;93.10;;;;;;4992949;28;20425;-78
2021/10/02 07:36:23;;;;;;;4.85;2.00;;;15.00;93.10;;;;;;5010485;28;20478;-78
2021/10/02 07:38:49;;;;;;;7.82;1.80;;;15.00;93.10;;;;;;5008682;28;20054;-78
2021/10/02 07:41:16;;;;;;;4.75;1.90;;;15.00;93.10;;;;;;5008584;28;20026;-79
2021/10/02 07:43:46;;;;;;;3.80;1.90;;;15.00;93.00;;;;;;5004417;28;20117;-78
2021/10/02 07:46:15;;;;;;;4.65;1.70;;;15.10;93.00;;;;;;4986872;28;20054;-76
2021/10/02 07:48:41;;;;;;;5.97;2.05;;;15.10;92.90;;;;;;4989469;28;20067;-76
2021/10/02 07:51:08;;;;;;;4.25;1.67;;;15.10;92.90;;;;;;5082335;28;20043;-76
2021/10/02 07:53:34;;;;;;;3.83;1.88;;;15.10;92.80;;;;;;4994198;28;20018;-76
2021/10/02 07:56:01;;;;;;;3.35;1.77;;;15.20;92.80;;;;;;4981944;28;20038;-76
2021/10/02 07:58:27;;;;;;;3.35;2.15;;;15.20;92.80;;;;;;4973157;28;20027;-76
2021/10/02 08:00:54;;;;;;;6.45;2.08;;;15.20;92.70;;;;;;4984078;28;20076;-76
2021/10/02 08:03:20;;;;;;;4.22;2.03;;;15.20;92.70;;;;;;4986678;28;20019;-76
2021/10/02 08:05:47;;;;;;;3.38;1.90;;;15.20;92.60;;;;;;4966020;28;20049;-76
2021/10/02 08:08:16;;;;;;;6.35;1.80;;;15.30;92.50;;;;;;5003244;28;20171;-76
2021/10/02 08:10:46;;;;;;;6.07;1.77;;;15.30;92.50;;;;;;4978376;28;20485;-76
2021/10/02 08:13:16;;;;;;;4.65;1.50;;;15.40;92.40;;;;;;4987060;28;21850;-76
2021/10/02 08:15:44;;;;;;;3.15;1.90;;;15.50;92.30;;;;;;4982325;28;20172;-75
2021/10/02 08:18:14;;;;;;;6.22;2.10;;;15.50;92.20;;;;;;4980365;28;20699;-76
2021/10/02 08:20:40;;;;;;;3.42;1.63;;;15.60;92.30;;;;;;4976331;28;20026;-76
2021/10/02 08:23:07;;;;;;;4.50;1.60;;;15.60;92.10;;;;;;4989003;28;20632;-76
2021/10/02 08:25:35;;;;;;;3.20;1.50;;;15.70;92.00;;;;;;4987110;28;20031;-76
2021/10/02 08:28:03;;;;;;;3.58;1.60;;;15.60;91.60;;;;;;4979163;28;20031;-77
2021/10/02 08:30:29;;;;;;;3.40;1.52;;;15.70;91.80;;;;;;5005438;28;20076;-76
2021/10/02 08:32:55;;;;;;;1.95;1.20;;;15.70;91.70;;;;;;4983226;28;20070;-77
2021/10/02 08:35:20;;;;;;;2.38;1.13;;;15.80;91.50;;;;;;4987406;28;20034;-77
2021/10/02 08:37:46;;;;;;;2.75;1.10;;;15.90;91.40;;;;;;4987432;28;20038;-77
2021/10/02 08:40:14;;;;;;;3.13;1.20;;;15.90;91.20;;;;;;4981691;28;20046;-76
2021/10/02 08:42:41;;;;;;;2.33;1.13;;;15.90;91.20;;;;;;4988155;28;20475;-77
2021/10/02 08:45:09;;;;;;;2.22;1.25;;;15.90;91.10;;;;;;4986077;28;20031;-76
2021/10/02 08:47:40;;;;;;;2.30;1.02;;;16.00;91.00;;;;;;4976547;28;20043;-79
2021/10/02 08:53:33;;;;;;;2.13;1.00;;;16.10;91.10;;;;;;4988897;28;20033;-79
2021/10/02 08:56:00;;;;;;;2.70;0.80;;;16.20;91.00;;;;;;4988624;28;20418;-77
2021/10/02 08:58:36;;;;;;;2.67;1.00;;;16.20;90.70;;;;;;4993197;28;20030;-79
2021/10/02 09:01:02;;;;;;;1.30;0.93;;;16.30;90.50;;;;;;4990198;28;20053;-79
2021/10/02 09:03:27;;;;;;;5.45;0.95;;;16.30;90.40;;;;;;4984032;28;20398;-79
2021/10/02 09:05:53;;;;;;;1.65;1.30;;;16.30;90.30;;;;;;4999996;28;20040;-79
2021/10/02 09:08:18;;;;;;;1.73;0.73;;;16.40;90.20;;;;;;4989748;28;20504;-79
2021/10/02 09:10:44;;;;;;;1.17;0.75;;;16.40;90.10;;;;;;5003737;28;20087;-80
2021/10/02 09:13:10;;;;;;;3.97;1.17;;;16.40;89.20;;;;;;4995553;28;20391;-79
2021/10/02 09:15:36;;;;;;;1.00;0.70;;;16.40;89.60;;;;;;4990893;28;20026;-77
2021/10/02 09:18:02;;;;;;;2.03;0.95;;;16.50;89.70;;;;;;4990820;28;20029;-79
2021/10/02 09:20:28;;;;;;;2.20;0.80;;;16.60;88.80;;;;;;4987968;28;20035;-79
2021/10/02 09:23:02;;;;;;;2.45;1.08;;;16.60;88.30;;;;;;4979049;28;20023;-79
2021/10/02 09:25:29;;;;;;;2.70;0.90;;;16.60;88.30;;;;;;4979394;28;20513;-78
2021/10/02 09:28:24;;;;;;;1.52;0.63;;;16.60;88.30;;;;;;4991337;28;20730;-79
2021/10/02 09:31:02;;;;;;;3.10;0.90;;;16.60;88.10;;;;;;4998574;28;20054;-78
2021/10/02 09:33:28;;;;;;;1.40;0.80;;;16.60;88.80;;;;;;4988327;28;20501;-79
2021/10/02 09:35:54;;;;;;;3.38;0.90;;;16.70;87.90;;;;;;4989203;28;20043;-79
2021/10/02 09:38:20;;;;;;;3.53;0.82;;;16.70;88.10;;;;;;4988973;28;20023;-80
2021/10/02 09:40:55;;;;;;;4.72;1.13;;;16.70;87.90;;;;;;4977816;28;20471;-79
2021/10/02 09:43:21;;;;;;;1.98;0.85;;;16.70;87.70;;;;;;5006279;28;20088;-78
2021/10/02 09:45:49;;;;;;;3.60;1.00;;;16.70;88.20;;;;;;4977500;28;20031;-78
2021/10/02 09:48:23;;;;;;;2.67;0.75;;;16.80;88.60;;;;;;4979300;28;20091;-78
2021/10/02 09:50:49;;;;;;;1.30;0.90;;;16.80;88.00;;;;;;4995227;28;20391;-78
2021/10/02 09:53:17;;;;;;;1.20;0.90;;;16.80;88.00;;;;;;4990432;28;20026;-78
2021/10/02 09:55:45;;;;;;;1.40;0.70;;;16.80;87.10;;;;;;4985699;28;20026;-78
2021/10/02 09:58:13;;;;;;;3.78;0.90;;;16.80;87.80;;;;;;4986800;28;20026;-78
2021/10/02 10:00:42;;;;;;;0.40;0.40;;;16.80;87.40;;;;;;4984240;28;20047;-78
2021/10/02 10:03:10;;;;;;;1.38;0.80;;;16.80;87.20;;;;;;4987791;28;20288;-78
2021/10/02 10:05:41;;;;;;;1.05;0.80;;;16.80;87.30;;;;;;4988418;28;20039;-78
2021/10/02 10:08:13;;;;;;;1.10;0.73;;;16.70;87.60;;;;;;4990817;28;20027;-78
2021/10/02 10:10:41;;;;;;;1.20;0.65;;;16.80;87.90;;;;;;4993723;28;20490;-78
2021/10/02 10:13:20;;;;;;;2.95;0.85;;;16.80;88.20;;;;;;4988692;28;20049;-78
2021/10/02 10:15:50;;;;;;;2.13;0.70;;;16.80;88.20;;;;;;4986873;28;20034;-78
2021/10/02 10:18:32;;;;;;;1.55;0.82;;;16.80;88.10;;;;;;4993375;28;20033;-78
2021/10/02 10:20:59;;;;;;;0.98;0.60;;;16.80;88.10;;;;;;4986604;28;20425;-78
2021/10/02 10:23:30;;;;;;;1.98;0.70;;;16.70;88.50;;;;;;4987785;28;20050;-80
2021/10/02 10:25:59;;;;;;;1.05;0.70;;;16.70;88.70;;;;;;4997317;28;20829;-78
2021/10/02 10:28:27;;;;;;;;;;;16.60;88.30;;;;;;4997652;28;20034;-78
2021/10/02 10:30:53;;;;;;;2.85;0.80;;;16.70;88.30;;;;;;4982318;28;20247;-78
2021/10/02 10:33:20;;;;;;;1.75;0.63;;;16.60;88.50;;;;;;4988089;28;20030;-78
2021/10/02 10:35:53;;;;;;;0.90;0.60;;;16.70;88.10;;;;;;4992022;28;20428;-79
2021/10/02 10:38:23;;;;;;;1.67;0.50;;;16.70;87.70;;;;;;4990161;28;20023;-78
2021/10/02 10:40:50;;;;;;;2.30;0.80;;;16.70;87.60;;;;;;4988885;28;20037;-78
2021/10/02 10:43:16;;;;;;;0.85;0.40;;;16.80;87.40;;;;;;4991276;28;20026;-78
2021/10/02 10:45:43;;;;;;;1.00;0.60;;;16.90;87.00;;;;;;4992718;28;20034;-78
2021/10/02 10:48:09;;;;;;;2.30;0.80;;;17.00;87.40;;;;;;4993494;28;20067;-78
2021/10/02 10:50:39;;;;;;;1.55;0.63;;;17.10;87.50;;;;;;4980208;28;20455;-79
2021/10/02 10:53:06;;;;;;;1.23;0.70;;;17.10;87.20;;;;;;4992378;28;20117;-78
2021/10/02 10:55:32;;;;;;;1.30;0.70;;;17.30;87.40;;;;;;4987873;28;20034;-79
2021/10/02 10:58:00;;;;;;;1.45;0.68;;;17.30;85.90;;;;;;4991940;28;20510;-79
2021/10/02 11:00:31;;;;;;;1.27;0.50;;;17.30;85.90;;;;;;4987229;28;20042;-79
2021/10/02 11:03:07;;;;;;;2.35;0.70;;;17.30;86.30;;;;;;5013557;28;20106;-80
2021/10/02 11:05:43;;;;;;;1.08;0.55;;;17.30;86.80;;;;;;4988670;28;20034;-78
2021/10/02 11:08:13;;;;;;;1.58;0.80;;;17.30;87.00;;;;;;4984482;28;20436;-79
2021/10/02 11:10:44;;;;;;;1.58;0.63;;;17.30;86.70;;;;;;4990906;28;20065;-78
2021/10/02 11:13:17;;;;;;;1.02;0.50;;;17.20;87.00;;;;;;4992221;28;20023;-79
2021/10/02 11:15:44;;;;;;;1.88;0.70;;;17.20;86.90;;;;;;4978614;28;20434;-77
2021/10/02 11:18:47;;;;;;;1.30;0.77;;;17.20;87.30;;;;;;4980453;28;20030;-80
2021/10/02 11:21:17;;;;;;;2.45;0.73;;;17.20;86.60;;;;;;5006691;28;20030;-80
2021/10/02 11:24:15;;;;;;;1.10;0.63;;;17.30;86.70;;;;;;4990332;28;20105;-78
2021/10/02 11:26:48;;;;;;;1.10;0.60;;;17.30;86.20;;;;;;4991135;28;20359;-77
2021/10/02 11:29:28;;;;;;;2.08;0.80;;;17.50;86.20;;;;;;5006737;28;20389;-77
2021/10/02 11:32:26;;;;;;;2.78;0.60;;;17.60;85.70;;;;;;5011214;28;20785;-78
2021/10/02 11:35:11;;;;;;;1.25;0.82;;;17.80;85.60;;;;;;4977681;28;20100;-78
2021/10/02 11:37:53;;;;;;;0.90;0.55;;;17.90;84.80;;;;;;4972151;28;20051;-78
2021/10/02 11:40:40;;;;;;;1.20;0.75;;;18.00;84.40;;;;;;4989382;28;20038;-77
2021/10/02 11:43:12;;;;;;;1.17;0.88;;;18.00;84.70;;;;;;4988744;28;20030;-78
2021/10/02 11:45:38;;;;;;;0.52;0.50;;;18.00;84.50;;;;;;4989186;28;20049;-77
2021/10/02 11:48:18;;;;;;;2.25;0.70;;;18.00;84.40;;;;;;4985145;28;20030;-78
2021/10/02 11:51:13;;;;;;;1.15;0.65;;;17.90;84.50;;;;;;4992201;28;20113;-78
2021/10/02 11:53:43;;;;;;;0.90;0.80;;;17.90;85.30;;;;;;4971757;28;20027;-78
2021/10/02 11:56:21;;;;;;;0.50;0.40;;;17.90;85.50;;;;;;4970562;28;20034;-77
2021/10/02 11:58:52;;;;;;;1.60;0.40;;;17.80;85.50;;;;;;4982692;28;20112;-78
2021/10/02 12:01:33;;;;;;;0.50;0.40;;;17.80;85.80;;;;;;5009478;28;20080;-78
2021/10/02 12:04:15;;;;;;;1.80;0.70;;;17.90;85.60;;;;;;4971383;28;20029;-78
2021/10/02 12:06:46;;;;;;;1.02;0.50;;;17.90;85.50;;;;;;4970474;28;20027;-78
2021/10/02 12:09:16;;;;;;;1.48;0.50;;;18.00;86.20;;;;;;4971907;28;20042;-78
2021/10/02 12:11:48;;;;;;;1.73;0.50;;;18.00;84.20;;;;;;4985690;28;20429;-78
2021/10/02 12:14:21;;;;;;;1.95;0.73;;;18.00;84.20;;;;;;4978547;28;20072;-78
2021/10/02 12:17:00;;;;;;;0.90;0.50;;;18.10;83.60;;;;;;4985352;28;20034;-78
2021/10/02 12:19:27;;;;;;;1.25;0.50;;;18.20;82.70;;;;;;4979274;28;20527;-78
2021/10/02 12:21:56;;;;;;;0.85;0.40;;;18.20;82.80;;;;;;5087650;28;20131;-78
2021/10/02 12:24:42;;;;;;;1.23;0.40;;;18.30;82.90;;;;;;5004166;28;20037;-78
2021/10/02 12:27:18;;;;;;;0.73;0.55;;;18.50;82.40;;;;;;5024741;28;20026;-78
2021/10/02 12:29:47;;;;;;;0.73;0.50;;;18.60;81.50;;;;;;4990369;28;20035;-78
2021/10/02 12:32:20;;;;;;;2.67;0.30;;;18.60;80.60;;;;;;4988959;28;20491;-78
2021/10/02 12:34:55;;;;;;;1.45;0.40;;;18.70;80.70;;;;;;4977282;28;20031;-78
2021/10/02 12:37:22;;;;;;;1.63;0.50;;;18.70;80.40;;;;;;4986429;28;20030;-78
2021/10/02 12:39:52;;;;;;;1.05;0.40;;;18.70;80.50;;;;;;4988912;28;20092;-78
2021/10/02 12:42:38;;;;;;;0.88;0.38;;;18.80;80.70;;;;;;4990554;28;20050;-78
2021/10/02 12:45:11;;;;;;;2.63;0.65;;;18.80;80.80;;;;;;4985951;28;20043;-78
2021/10/02 12:47:38;;;;;;;1.67;0.30;;;18.80;80.70;;;;;;4978938;28;20026;-78
2021/10/02 12:50:08;;;;;;;1.48;0.55;;;18.90;79.70;;;;;;4985432;28;20042;-78
2021/10/02 12:52:34;;;;;;;1.42;0.50;;;18.90;80.00;;;;;;4992634;28;20027;-79
2021/10/02 12:55:01;;;;;;;1.33;0.50;;;18.80;80.10;;;;;;4995633;28;20477;-79
2021/10/02 12:57:36;;;;;;;0.68;0.50;;;18.70;77.80;;;;;;4974438;28;20035;-79
2021/10/02 13:00:11;;;;;;;1.83;0.52;;;18.70;77.90;;;;;;4974398;28;20140;-79
2021/10/02 13:02:42;;;;;;;1.67;0.60;;;18.70;78.10;;;;;;4972848;28;20038;-79
2021/10/02 13:05:08;;;;;;;1.38;0.45;;;18.70;79.00;;;;;;4983622;28;20023;-78
2021/10/02 13:07:42;;;;;;;1.92;0.70;;;18.80;79.40;;;;;;5006334;28;20362;-77
2021/10/02 13:10:12;;;;;;;0.93;0.50;;;18.80;79.40;;;;;;5012257;28;20030;-77
2021/10/02 13:12:44;;;;;;;1.10;0.65;;;18.90;79.40;;;;;;5013020;28;20034;-78
2021/10/02 13:15:24;;;;;;;1.42;0.60;;;18.80;78.90;;;;;;5013207;28;20025;-78
2021/10/02 13:18:11;;;;;;;5.50;0.65;;;18.80;79.40;;;;;;5013499;28;20079;-77
2021/10/02 13:20:53;;;;;;;1.98;0.75;;;18.80;79.40;;;;;;4981582;28;20052;-77
2021/10/02 13:23:32;;;;;;;0.90;0.60;;;18.70;78.50;;;;;;4993904;28;20107;-77
2021/10/02 13:26:02;;;;;;;;;;;18.70;79.30;;;;;;5001680;28;20445;-77
2021/10/02 13:28:31;;;;;;;0.70;0.50;;;18.70;78.50;;;;;;5012959;28;19906;-77
2021/10/02 13:31:20;;;;;;;2.90;0.68;;;18.70;77.00;;;;;;5000024;28;20088;-77
2021/10/02 13:34:05;;;;;;;2.15;0.90;;;18.70;77.60;;;;;;4986416;28;20493;-77
2021/10/02 13:36:34;;;;;;;1.77;0.70;;;18.80;77.20;;;;;;4998863;28;20034;-77
2021/10/02 13:39:29;;;;;;;1.23;0.60;;;18.80;77.10;;;;;;5000286;28;20031;-77
2021/10/02 13:42:07;;;;;;;1.73;0.57;;;18.80;77.50;;;;;;4992618;28;20131;-77
2021/10/02 13:44:33;;;;;;;2.35;0.70;;;18.80;77.60;;;;;;4990366;28;20041;-77
2021/10/02 13:47:02;;;;;;;1.85;0.70;;;18.80;77.80;;;;;;4982182;28;20039;-77
2021/10/02 13:49:29;;;;;;;3.20;0.60;;;18.80;77.90;;;;;;4977195;28;20117;-77
2021/10/02 13:51:56;;;;;;;1.02;0.68;;;18.80;78.10;;;;;;4990104;28;20101;-77
2021/10/02 13:54:21;;;;;;;1.98;0.60;;;18.80;78.00;;;;;;4979201;28;20045;-77
2021/10/02 13:56:47;;;;;;;0.82;0.50;;;18.70;76.30;;;;;;4976100;28;20479;-77
2021/10/02 13:59:13;;;;;;;2.28;0.90;;;18.70;75.80;;;;;;5057714;28;20122;-77
2021/10/02 14:01:40;;;;;;;2.80;0.73;;;18.70;76.20;;;;;;4988318;28;20035;-77